createdAt,value
2022-12-25T00:01:44.425Z,0.82
2022-12-25T00:06:47.252Z,0.79
2022-12-25T00:11:50.101Z,0.69
2022-12-25T00:16:52.960Z,0.63
2022-12-25T00:21:55.776Z,0.61
2022-12-25T00:26:58.580Z,0.62
2022-12-25T00:32:01.525Z,0.67
2022-12-25T00:37:04.644Z,0.67
2022-12-25T00:42:19.452Z,0.64
2022-12-25T00:47:22.415Z,0.59
2022-12-25T00:52:25.251Z,0.63
2022-12-25T00:57:28.060Z,0.74
2022-12-25T01:02:31.052Z,0.83
2022-12-25T01:07:34.036Z,0.92
2022-12-25T01:12:40.661Z,0.98
2022-12-25T01:17:44.166Z,1.05
2022-12-25T01:22:47.488Z,1.09
2022-12-25T01:27:50.289Z,1.09
2022-12-25T01:32:53.070Z,1.13
2022-12-25T01:37:55.903Z,1.17
2022-12-25T01:42:58.712Z,1.19
2022-12-25T01:48:06.068Z,1.22
2022-12-25T01:53:09.371Z,1.24
2022-12-25T01:58:12.318Z,1.24
2022-12-25T02:03:15.312Z,1.20
2022-12-25T02:08:20.748Z,1.10
2022-12-25T02:13:23.518Z,1.05
2022-12-25T02:18:51.141Z,1.09
2022-12-25T02:24:28.240Z,1.19
2022-12-25T02:29:42.839Z,1.20
2022-12-25T02:35:13.526Z,1.19
2022-12-25T02:40:21.186Z,1.18
2022-12-25T02:46:19.257Z,1.21
2022-12-25T02:51:45.880Z,1.18
2022-12-25T02:57:08.816Z,1.13
2022-12-25T03:02:31.588Z,1.11
2022-12-25T03:07:39.667Z,1.11
2022-12-25T03:12:53.728Z,1.16
2022-12-25T03:18:00.246Z,1.20
2022-12-25T03:23:22.472Z,1.23
2022-12-25T03:28:25.489Z,1.27
2022-12-25T03:33:47.164Z,1.31
2022-12-25T03:39:21.289Z,1.28
2022-12-25T03:44:51.443Z,1.24
2022-12-25T03:50:23.788Z,1.20
2022-12-25T03:55:59.429Z,1.18
2022-12-25T04:01:21.113Z,1.15
2022-12-25T04:06:42.477Z,1.14
2022-12-25T04:12:03.966Z,1.12
2022-12-25T04:17:32.670Z,1.09
2022-12-25T04:22:53.754Z,1.08
2022-12-25T04:28:20.875Z,1.05
2022-12-25T04:33:42.077Z,1.06
2022-12-25T04:38:44.868Z,1.10
2022-12-25T04:43:47.866Z,1.10
2022-12-25T04:48:50.670Z,1.13
2022-12-25T04:53:53.948Z,1.16
2022-12-25T04:58:56.732Z,1.17
2022-12-25T05:03:59.916Z,1.18
2022-12-25T05:09:03.270Z,1.19
2022-12-25T05:14:06.283Z,1.24
2022-12-25T05:19:09.330Z,1.29
2022-12-25T05:24:12.191Z,1.33
2022-12-25T05:29:15.139Z,1.36
2022-12-25T05:34:17.959Z,1.39
2022-12-25T05:39:20.746Z,1.45
2022-12-25T05:44:23.802Z,1.47
2022-12-25T05:49:26.653Z,1.47
2022-12-25T05:54:29.505Z,1.52
2022-12-25T05:59:33.576Z,1.55
2022-12-25T06:04:36.741Z,1.57
2022-12-25T06:09:39.606Z,1.60
2022-12-25T06:14:42.440Z,1.60
2022-12-25T06:19:45.293Z,1.63
2022-12-25T06:24:48.140Z,1.66
2022-12-25T06:29:51.202Z,1.63
2022-12-25T06:34:54.029Z,1.58
2022-12-25T06:39:56.840Z,1.52
2022-12-25T06:44:59.892Z,1.49
2022-12-25T06:50:02.724Z,1.43
2022-12-25T06:55:05.905Z,1.40
2022-12-25T07:00:10.720Z,1.35
2022-12-25T07:05:13.689Z,1.40
2022-12-25T07:10:16.631Z,1.47
2022-12-25T07:15:19.423Z,1.53
2022-12-25T07:20:22.439Z,1.57
2022-12-25T07:25:25.212Z,1.58
2022-12-25T07:30:29.216Z,1.58
2022-12-25T07:35:32.032Z,1.62
2022-12-25T07:40:35.567Z,1.69
2022-12-25T07:45:39.289Z,1.78
2022-12-25T07:50:42.125Z,1.87
2022-12-25T07:55:44.904Z,1.97
2022-12-25T08:00:47.832Z,2.02
2022-12-25T08:05:50.755Z,2.09
2022-12-25T08:10:53.522Z,2.20
2022-12-25T08:16:01.148Z,2.33
2022-12-25T08:21:06.808Z,2.45
2022-12-25T08:26:13.639Z,2.54
2022-12-25T08:31:20.464Z,2.66
2022-12-25T08:36:24.390Z,2.82
2022-12-25T08:41:27.721Z,2.95
2022-12-25T08:46:30.865Z,3.03
2022-12-25T08:51:34.580Z,3.12
2022-12-25T08:56:37.423Z,3.21
2022-12-25T09:01:40.252Z,3.28
2022-12-25T09:06:43.233Z,3.39
2022-12-25T09:11:46.048Z,3.61
2022-12-25T09:16:51.595Z,3.73
2022-12-25T09:21:54.508Z,3.74
2022-12-25T09:26:57.304Z,3.71
2022-12-25T09:32:00.262Z,3.81
2022-12-25T09:37:03.763Z,4.17
2022-12-25T09:42:20.054Z,4.72
2022-12-25T09:47:27.995Z,5.28
2022-12-25T09:52:53.127Z,5.53
2022-12-25T09:58:01.675Z,5.50
2022-12-25T10:03:23.205Z,5.18
2022-12-25T10:08:31.858Z,4.85
2022-12-25T10:13:37.648Z,4.48
2022-12-25T10:18:59.043Z,4.20
2022-12-25T10:24:07.976Z,4.05
2022-12-25T10:29:16.827Z,3.88
2022-12-25T10:34:19.853Z,3.81
2022-12-25T10:39:26.269Z,3.76
2022-12-25T10:44:29.221Z,3.77
2022-12-25T10:49:35.945Z,3.79
2022-12-25T10:54:38.762Z,3.72
2022-12-25T10:59:49.655Z,3.60
2022-12-25T11:05:09.742Z,3.51
2022-12-25T11:10:24.074Z,3.43
2022-12-25T11:15:44.770Z,3.43
2022-12-25T11:20:50.436Z,3.45
2022-12-25T11:26:04.137Z,3.38
2022-12-25T11:31:13.281Z,3.36
2022-12-25T11:36:23.049Z,3.27
2022-12-25T11:41:32.720Z,3.07
2022-12-25T11:46:45.449Z,2.98
2022-12-25T11:51:52.044Z,2.99
2022-12-25T11:57:00.140Z,3.04
2022-12-25T12:02:21.894Z,3.12
2022-12-25T12:07:29.314Z,3.18
2022-12-25T12:12:55.048Z,3.23
2022-12-25T12:18:28.779Z,3.22
2022-12-25T12:23:35.929Z,3.19
2022-12-25T12:28:46.319Z,3.14
2022-12-25T12:33:55.047Z,3.10
2022-12-25T12:38:59.148Z,3.07
2022-12-25T12:44:05.247Z,3.05
2022-12-25T12:49:22.268Z,3.09
2022-12-25T12:54:27.942Z,3.13
2022-12-25T12:59:46.968Z,3.18
2022-12-25T13:05:05.874Z,3.19
2022-12-25T13:10:13.751Z,3.19
2022-12-25T13:15:16.610Z,3.27
2022-12-25T13:20:55.285Z,3.37
2022-12-25T13:26:14.858Z,3.43
2022-12-25T13:31:20.886Z,3.46
2022-12-25T13:36:24.971Z,3.42
2022-12-25T13:41:59.379Z,3.36
2022-12-25T13:47:27.708Z,3.31
2022-12-25T13:52:38.093Z,3.26
2022-12-25T13:58:11.216Z,3.20
2022-12-25T14:03:37.328Z,3.09
2022-12-25T14:08:40.313Z,2.99
2022-12-25T14:13:45.300Z,2.92
2022-12-25T14:18:53.943Z,2.88
2022-12-25T14:23:57.425Z,2.82
2022-12-25T14:29:11.047Z,2.78
2022-12-25T14:34:22.088Z,2.78
2022-12-25T14:39:35.542Z,2.76
2022-12-25T14:44:40.121Z,2.74
2022-12-25T14:49:43.637Z,2.72
2022-12-25T14:55:07.825Z,2.70
2022-12-25T15:00:32.437Z,2.68
2022-12-25T15:05:36.779Z,2.66
2022-12-25T15:16:14.405Z,2.68
2022-12-25T15:21:20.199Z,2.66
2022-12-25T15:26:23.227Z,2.65
2022-12-25T15:31:30.480Z,2.63
2022-12-25T15:36:34.310Z,2.61
2022-12-25T15:42:13.877Z,2.61
2022-12-25T15:47:20.307Z,2.61
2022-12-25T15:52:23.154Z,2.59
2022-12-25T15:57:26.449Z,2.56
2022-12-25T16:02:29.492Z,2.52
2022-12-25T16:07:33.681Z,2.48
2022-12-25T16:12:36.509Z,2.47
2022-12-25T16:17:39.680Z,2.48
2022-12-25T16:22:42.541Z,2.50
2022-12-25T16:27:45.801Z,2.50
2022-12-25T16:32:50.275Z,2.51
2022-12-25T16:37:53.086Z,2.48
2022-12-25T16:42:56.358Z,2.49
2022-12-25T16:47:59.196Z,2.50
2022-12-25T16:53:02.070Z,2.48
2022-12-25T16:58:06.231Z,2.47
2022-12-25T17:03:09.160Z,2.46
2022-12-25T17:08:12.061Z,2.46
2022-12-25T17:13:14.859Z,2.45
2022-12-25T17:18:21.882Z,2.44
2022-12-25T17:23:24.783Z,2.43
2022-12-25T17:28:27.657Z,2.41
2022-12-25T17:33:30.749Z,2.39
2022-12-25T17:38:34.932Z,2.38
2022-12-25T17:43:38.519Z,2.38
2022-12-25T17:48:41.909Z,2.41
2022-12-25T17:53:47.439Z,2.43
2022-12-25T17:58:52.358Z,2.45
2022-12-25T18:03:55.464Z,2.48
2022-12-25T18:08:58.428Z,2.51
2022-12-25T18:14:04.079Z,2.51
2022-12-25T18:19:07.050Z,2.52
2022-12-25T18:24:10.258Z,2.54
2022-12-25T18:29:13.067Z,2.56
2022-12-25T18:34:15.948Z,2.56
2022-12-25T18:39:19.244Z,2.58
2022-12-25T18:44:22.071Z,2.58
2022-12-25T18:49:24.907Z,2.59
2022-12-25T18:54:27.728Z,2.63
2022-12-25T18:59:31.250Z,2.65
2022-12-25T19:04:34.535Z,2.68
2022-12-25T19:09:37.804Z,2.71
2022-12-25T19:14:47.691Z,2.72
2022-12-25T19:19:51.165Z,2.74
2022-12-25T19:24:54.035Z,2.76
2022-12-25T19:29:56.831Z,2.77
2022-12-25T19:35:04.426Z,2.77
2022-12-25T19:40:07.921Z,2.77
2022-12-25T19:45:11.184Z,2.79
2022-12-25T19:50:14.095Z,2.80
2022-12-25T19:55:20.191Z,2.81
2022-12-25T20:00:23.033Z,2.81
2022-12-25T20:05:25.903Z,2.79
2022-12-25T20:10:28.723Z,2.74
2022-12-25T20:15:31.553Z,2.74
2022-12-25T20:20:34.417Z,2.74
2022-12-25T20:25:43.431Z,2.76
2022-12-25T20:30:46.278Z,2.79
2022-12-25T20:35:49.557Z,2.83
2022-12-25T20:41:26.106Z,2.89
2022-12-25T20:46:24.859Z,2.96
2022-12-25T20:51:28.266Z,3.02
2022-12-25T20:56:31.231Z,3.04
2022-12-25T21:01:34.178Z,3.05
2022-12-25T21:06:37.081Z,3.06
2022-12-25T21:11:39.972Z,3.07
2022-12-25T21:16:44.445Z,3.08
2022-12-25T21:21:50.136Z,3.08
2022-12-25T21:26:52.942Z,3.10
2022-12-25T21:32:14.451Z,3.12
2022-12-25T21:37:17.308Z,3.14
2022-12-25T21:42:20.107Z,3.16
2022-12-25T21:47:22.890Z,3.18
2022-12-25T21:52:25.734Z,3.19
2022-12-25T21:57:28.508Z,3.21
2022-12-25T22:02:31.896Z,3.22
2022-12-25T22:07:35.443Z,3.24
2022-12-25T22:12:56.503Z,3.27
2022-12-25T22:18:17.710Z,3.27
2022-12-25T22:23:20.467Z,3.25
2022-12-25T22:28:23.284Z,3.25
2022-12-25T22:33:28.076Z,3.25
2022-12-25T22:38:31.373Z,3.24
2022-12-25T22:44:14.540Z,3.23
2022-12-25T22:48:57.327Z,3.25
2022-12-25T22:54:03.527Z,3.27
2022-12-25T22:59:07.027Z,3.30
2022-12-25T23:04:11.165Z,3.32
2022-12-25T23:09:22.098Z,3.36
2022-12-25T23:14:39.230Z,3.41
2022-12-25T23:20:13.682Z,3.46
2022-12-25T23:25:35.133Z,3.49
2022-12-25T23:30:37.982Z,3.52
2022-12-25T23:35:40.829Z,3.53
2022-12-25T23:40:43.623Z,3.56
2022-12-25T23:45:46.453Z,3.57
2022-12-25T23:50:49.298Z,3.60
2022-12-25T23:55:55.782Z,3.64
